Time,TemperatureF,DewpointF,PressureIn,WindDirection,WindDirectionDegrees,WindSpeedMPH,WindSpeedGustMPH,Humidity,HourlyPrecipIn,Conditions,Clouds,dailyrainin,SoftwareType,DateUTC
2013-11-06 00:04:00,52.3,43.9,30.25,SE,145,1.0,1.0,73,0.00,,,0.00,meteohub,2013-11-06 08:04:00,
2013-11-06 00:09:00,52.2,43.0,30.25,SE,145,0.0,2.0,71,0.00,,,0.00,meteohub,2013-11-06 08:09:00,
2013-11-06 00:14:00,52.2,41.9,30.25,SE,145,2.0,2.0,68,0.00,,,0.00,meteohub,2013-11-06 08:14:00,
2013-11-06 00:19:00,52.0,41.0,30.25,SE,145,1.0,2.0,66,0.00,,,0.00,meteohub,2013-11-06 08:19:00,
2013-11-06 00:24:00,51.8,40.8,30.25,SE,145,1.0,3.0,66,0.00,,,0.00,meteohub,2013-11-06 08:24:00,
2013-11-06 00:29:00,51.6,40.3,30.25,SE,145,0.0,3.0,65,0.00,,,0.00,meteohub,2013-11-06 08:29:00,
2013-11-06 00:34:00,51.4,39.2,30.26,SE,145,2.0,3.0,63,0.00,,,0.00,meteohub,2013-11-06 08:34:00,
2013-11-06 00:39:00,51.4,38.8,30.26,SE,145,3.0,3.0,62,0.00,,,0.00,meteohub,2013-11-06 08:39:00,
2013-11-06 00:44:00,51.6,39.0,30.26,SE,145,2.0,3.0,62,0.00,,,0.00,meteohub,2013-11-06 08:44:00,
2013-11-06 00:49:00,51.6,39.4,30.26,SE,145,2.0,4.0,63,0.00,,,0.00,meteohub,2013-11-06 08:49:00,
2013-11-06 00:54:00,51.4,39.7,30.26,SE,145,2.0,4.0,64,0.00,,,0.00,meteohub,2013-11-06 08:54:00,
2013-11-06 00:59:00,51.3,39.6,30.27,SE,145,0.0,4.0,64,0.00,,,0.00,meteohub,2013-11-06 08:59:00,
2013-11-06 01:04:00,51.1,39.7,30.27,SE,145,0.0,3.0,65,0.00,,,0.00,meteohub,2013-11-06 09:04:00,
2013-11-06 01:09:00,50.9,39.6,30.27,SE,145,0.0,3.0,65,0.00,,,0.00,meteohub,2013-11-06 09:09:00,
2013-11-06 01:14:00,50.7,39.4,30.27,SE,145,1.0,3.0,65,0.00,,,0.00,meteohub,2013-11-06 09:14:00,
2013-11-06 01:19:00,50.5,39.2,30.26,SE,145,2.0,2.0,65,0.00,,,0.00,meteohub,2013-11-06 09:19:00,
2013-11-06 01:24:00,50.4,39.0,30.26,SE,145,1.0,4.0,65,0.00,,,0.00,meteohub,2013-11-06 09:24:00,
2013-11-06 01:29:00,50.4,39.0,30.26,SE,145,0.0,4.0,65,0.00,,,0.00,meteohub,2013-11-06 09:29:00,
2013-11-06 01:35:00,50.4,39.0,30.26,SE,145,0.0,4.0,65,0.00,,,0.00,meteohub,2013-11-06 09:35:00,
2013-11-06 01:40:00,50.5,39.2,30.26,SE,145,0.0,3.0,65,0.00,,,0.00,meteohub,2013-11-06 09:40:00,
2013-11-06 01:45:00,50.7,39.4,30.26,SE,145,0.0,3.0,65,0.00,,,0.00,meteohub,2013-11-06 09:45:00,
2013-11-06 01:50:00,50.7,39.0,30.26,SE,145,0.0,0.0,64,0.00,,,0.00,meteohub,2013-11-06 09:50:00,
2013-11-06 01:55:00,50.9,39.2,30.26,SE,145,2.0,2.0,64,0.00,,,0.00,meteohub,2013-11-06 09:55:00,
2013-11-06 02:00:00,50.7,39.0,30.26,SE,145,3.0,3.0,64,0.00,,,0.00,meteohub,2013-11-06 10:00:00,
2013-11-06 02:05:00,50.7,39.0,30.26,SE,145,4.0,4.0,64,0.00,,,0.00,meteohub,2013-11-06 10:05:00,
2013-11-06 02:10:00,50.5,39.2,30.26,ESE,104,3.0,4.0,65,0.00,,,0.00,meteohub,2013-11-06 10:10:00,
2013-11-06 02:15:00,50.7,39.7,30.27,NE,35,3.0,6.0,66,0.00,,,0.00,meteohub,2013-11-06 10:15:00,
2013-11-06 02:20:00,50.7,39.7,30.27,North,354,4.0,6.0,66,0.00,,,0.00,meteohub,2013-11-06 10:20:00,
2013-11-06 02:25:00,50.7,40.5,30.27,North,354,5.0,6.0,68,0.00,,,0.00,meteohub,2013-11-06 10:25:00,
2013-11-06 02:30:00,50.9,41.2,30.26,North,354,3.0,5.0,69,0.00,,,0.00,meteohub,2013-11-06 10:30:00,
2013-11-06 02:35:00,51.1,41.2,30.27,North,354,3.0,5.0,69,0.00,,,0.00,meteohub,2013-11-06 10:35:00,
2013-11-06 02:40:00,51.1,41.2,30.26,North,354,3.0,5.0,69,0.00,,,0.00,meteohub,2013-11-06 10:40:00,
2013-11-06 02:45:00,51.1,40.8,30.25,NNE,30,2.0,6.0,68,0.00,,,0.00,meteohub,2013-11-06 10:45:00,
2013-11-06 02:50:00,50.7,39.7,30.25,NNE,22,4.0,6.0,66,0.00,,,0.00,meteohub,2013-11-06 10:50:00,
2013-11-06 02:55:00,50.5,39.6,30.25,NNE,23,2.0,6.0,66,0.00,,,0.00,meteohub,2013-11-06 10:55:00,
2013-11-06 03:00:00,50.5,39.6,30.25,North,8,2.0,6.0,66,0.00,,,0.00,meteohub,2013-11-06 11:00:00,
2013-11-06 03:05:00,50.4,39.4,30.25,North,349,5.0,5.0,66,0.00,,,0.00,meteohub,2013-11-06 11:05:00,
2013-11-06 03:10:00,50.4,39.4,30.25,NNW,335,4.0,5.0,66,0.00,,,0.00,meteohub,2013-11-06 11:10:00,
2013-11-06 03:15:00,50.4,39.4,30.25,NW,316,5.0,8.0,66,0.00,,,0.00,meteohub,2013-11-06 11:15:00,
2013-11-06 03:20:00,50.4,39.4,30.25,NW,320,6.0,8.0,66,0.00,,,0.00,meteohub,2013-11-06 11:20:00,
2013-11-06 03:25:00,50.2,39.2,30.25,NNW,329,8.0,10.0,66,0.00,,,0.00,meteohub,2013-11-06 11:25:00,
2013-11-06 03:30:00,50.5,39.6,30.25,NW,319,8.0,11.0,66,0.00,,,0.00,meteohub,2013-11-06 11:30:00,
2013-11-06 03:35:00,51.3,41.9,30.25,NW,326,4.0,11.0,70,0.00,,,0.00,meteohub,2013-11-06 11:35:00,
2013-11-06 03:40:00,51.4,43.2,30.25,NW,324,6.0,11.0,73,0.00,,,0.00,meteohub,2013-11-06 11:40:00,
2013-11-06 03:45:00,51.8,44.1,30.25,NNW,347,5.0,9.0,75,0.00,,,0.00,meteohub,2013-11-06 11:45:00,
2013-11-06 03:50:00,52.3,45.3,30.25,NNW,338,9.0,10.0,77,0.00,,,0.00,meteohub,2013-11-06 11:50:00,
2013-11-06 03:55:00,52.5,45.5,30.25,NNW,342,6.0,10.0,77,0.00,,,0.00,meteohub,2013-11-06 11:55:00,
2013-11-06 04:00:00,52.3,45.3,30.25,North,349,6.0,10.0,77,0.00,,,0.00,meteohub,2013-11-06 12:00:00,
2013-11-06 04:05:00,52.3,44.6,30.25,NNW,341,5.0,9.0,75,0.00,,,0.00,meteohub,2013-11-06 12:05:00,
2013-11-06 04:10:00,52.2,43.7,30.25,NNW,336,5.0,9.0,73,0.00,,,0.00,meteohub,2013-11-06 12:10:00,
2013-11-06 04:15:00,52.3,43.2,30.26,NNW,328,8.0,10.0,71,0.00,,,0.00,meteohub,2013-11-06 12:15:00,
2013-11-06 04:20:00,52.3,42.4,30.26,NNW,336,7.0,11.0,69,0.00,,,0.00,meteohub,2013-11-06 12:20:00,
2013-11-06 04:25:00,52.3,41.7,30.26,North,354,7.0,11.0,67,0.00,,,0.00,meteohub,2013-11-06 12:25:00,
2013-11-06 04:30:00,52.2,41.2,30.26,North,349,6.0,11.0,66,0.00,,,0.00,meteohub,2013-11-06 12:30:00,
2013-11-06 04:35:00,52.0,41.0,30.26,North,349,6.0,11.0,66,0.00,,,0.00,meteohub,2013-11-06 12:35:00,
2013-11-06 04:40:00,52.0,41.7,30.27,North,349,5.0,10.0,68,0.00,,,0.00,meteohub,2013-11-06 12:40:00,
2013-11-06 04:45:00,51.6,42.4,30.27,NNW,343,5.0,9.0,71,0.00,,,0.00,meteohub,2013-11-06 12:45:00,
2013-11-06 04:51:00,51.6,43.5,30.27,NNW,337,5.0,8.0,74,0.00,,,0.00,meteohub,2013-11-06 12:51:00,
2013-11-06 04:56:00,51.6,44.2,30.27,NNW,340,4.0,7.0,76,0.00,,,0.00,meteohub,2013-11-06 12:56:00,
2013-11-06 05:01:00,51.4,44.4,30.27,NNW,337,5.0,7.0,77,0.00,,,0.00,meteohub,2013-11-06 13:01:00,
2013-11-06 05:06:00,51.3,43.9,30.27,NNW,339,4.0,8.0,76,0.00,,,0.00,meteohub,2013-11-06 13:06:00,
2013-11-06 05:11:00,51.1,43.2,30.27,NNW,347,5.0,8.0,74,0.00,,,0.00,meteohub,2013-11-06 13:11:00,
2013-11-06 05:16:00,51.3,43.5,30.27,NNW,348,7.0,8.0,75,0.00,,,0.00,meteohub,2013-11-06 13:16:00,
2013-11-06 05:21:00,51.4,43.5,30.27,NNW,339,6.0,8.0,74,0.00,,,0.00,meteohub,2013-11-06 13:21:00,
2013-11-06 05:26:00,51.4,43.2,30.26,NNW,335,6.0,8.0,73,0.00,,,0.00,meteohub,2013-11-06 13:26:00,
2013-11-06 05:31:00,51.3,42.3,30.26,NNW,336,6.0,8.0,71,0.00,,,0.00,meteohub,2013-11-06 13:31:00,
2013-11-06 05:36:00,51.1,40.8,30.26,NNW,339,4.0,8.0,68,0.00,,,0.00,meteohub,2013-11-06 13:36:00,
2013-11-06 05:41:00,50.7,39.7,30.26,NNW,335,4.0,7.0,66,0.00,,,0.00,meteohub,2013-11-06 13:41:00,
2013-11-06 05:46:00,50.4,39.4,30.26,NNW,343,5.0,7.0,66,0.00,,,0.00,meteohub,2013-11-06 13:46:00,
2013-11-06 05:51:00,50.4,39.0,30.26,NNW,348,5.0,7.0,65,0.00,,,0.00,meteohub,2013-11-06 13:51:00,
2013-11-06 05:56:00,50.4,39.0,30.27,NNW,335,6.0,8.0,65,0.00,,,0.00,meteohub,2013-11-06 13:56:00,
2013-11-06 06:01:00,50.2,38.8,30.27,NNW,347,4.0,8.0,65,0.00,,,0.00,meteohub,2013-11-06 14:01:00,
2013-11-06 06:06:00,50.0,38.7,30.27,North,354,0.0,8.0,65,0.00,,,0.00,meteohub,2013-11-06 14:06:00,
2013-11-06 06:11:00,49.8,38.8,30.27,NNW,341,5.0,8.0,66,0.00,,,0.00,meteohub,2013-11-06 14:11:00,
2013-11-06 06:16:00,50.0,38.7,30.27,North,359,7.0,9.0,65,0.00,,,0.00,meteohub,2013-11-06 14:16:00,
2013-11-06 06:21:00,50.2,38.8,30.27,North,354,5.0,9.0,65,0.00,,,0.00,meteohub,2013-11-06 14:21:00,
2013-11-06 06:26:00,50.2,38.8,30.27,North,354,4.0,8.0,65,0.00,,,0.00,meteohub,2013-11-06 14:26:00,
2013-11-06 06:31:00,50.4,39.0,30.27,North,354,5.0,8.0,65,0.00,,,0.00,meteohub,2013-11-06 14:31:00,
2013-11-06 06:36:00,50.5,38.8,30.27,North,354,5.0,6.0,64,0.00,,,0.00,meteohub,2013-11-06 14:36:00,
2013-11-06 06:41:00,50.5,38.8,30.27,North,349,5.0,5.0,64,0.00,,,0.00,meteohub,2013-11-06 14:41:00,
2013-11-06 06:46:00,50.7,39.0,30.27,NNW,337,5.0,5.0,64,0.00,,,0.00,meteohub,2013-11-06 14:46:00,
2013-11-06 06:51:00,50.7,38.7,30.27,NNW,332,5.0,6.0,63,0.00,,,0.00,meteohub,2013-11-06 14:51:00,
2013-11-06 06:56:00,50.7,38.7,30.27,NNW,330,5.0,6.0,63,0.00,,,0.00,meteohub,2013-11-06 14:56:00,
2013-11-06 07:01:00,50.5,38.5,30.27,NW,326,5.0,6.0,63,0.00,,,0.00,meteohub,2013-11-06 15:01:00,
2013-11-06 07:06:00,50.2,38.5,30.27,NNW,330,6.0,6.0,64,0.00,,,0.00,meteohub,2013-11-06 15:06:00,
2013-11-06 07:11:00,50.2,38.5,30.27,NNW,330,3.0,6.0,64,0.00,,,0.00,meteohub,2013-11-06 15:11:00,
2013-11-06 07:16:00,50.4,38.7,30.27,NNW,332,2.0,6.0,64,0.00,,,0.00,meteohub,2013-11-06 15:16:00,
2013-11-06 07:21:00,50.5,38.5,30.27,NNW,330,2.0,6.0,63,0.00,,,0.00,meteohub,2013-11-06 15:21:00,
2013-11-06 07:26:00,51.1,38.5,30.27,NNW,331,2.0,4.0,62,0.00,,,0.00,meteohub,2013-11-06 15:26:00,
2013-11-06 07:31:00,51.4,38.5,30.28,NNW,331,2.0,4.0,61,0.00,,,0.00,meteohub,2013-11-06 15:31:00,
2013-11-06 07:36:00,52.2,38.7,30.28,NNW,331,4.0,4.0,60,0.00,,,0.00,meteohub,2013-11-06 15:36:00,
2013-11-06 07:41:00,52.9,39.0,30.28,NNW,335,4.0,6.0,59,0.00,,,0.00,meteohub,2013-11-06 15:41:00,
2013-11-06 07:46:00,53.2,38.5,30.28,NNW,339,7.0,7.0,57,0.00,,,0.00,meteohub,2013-11-06 15:46:00,
2013-11-06 07:51:00,53.8,38.8,30.29,North,349,6.0,9.0,57,0.00,,,0.00,meteohub,2013-11-06 15:51:00,
2013-11-06 07:57:00,54.1,38.8,30.29,North,350,7.0,9.0,56,0.00,,,0.00,meteohub,2013-11-06 15:57:00,
2013-11-06 08:02:00,54.9,39.0,30.29,North,8,6.0,9.0,55,0.00,,,0.00,meteohub,2013-11-06 16:02:00,
2013-11-06 08:07:00,55.8,38.8,30.29,North,4,5.0,8.0,53,0.00,,,0.00,meteohub,2013-11-06 16:07:00,
2013-11-06 08:12:00,56.7,38.7,30.29,NNE,14,7.0,8.0,51,0.00,,,0.00,meteohub,2013-11-06 16:12:00,
2013-11-06 08:17:00,57.6,38.5,30.30,NNE,18,5.0,8.0,49,0.00,,,0.00,meteohub,2013-11-06 16:17:00,
2013-11-06 08:22:00,58.1,38.5,30.30,NNE,18,3.0,8.0,48,0.00,,,0.00,meteohub,2013-11-06 16:22:00,
2013-11-06 08:27:00,58.6,38.5,30.30,North,8,5.0,8.0,47,0.00,,,0.00,meteohub,2013-11-06 16:27:00,
2013-11-06 08:32:00,59.0,38.8,30.30,North,359,3.0,8.0,47,0.00,,,0.00,meteohub,2013-11-06 16:32:00,
2013-11-06 08:37:00,59.4,38.7,30.30,NNE,12,4.0,8.0,46,0.00,,,0.00,meteohub,2013-11-06 16:37:00,
2013-11-06 08:42:00,59.5,38.7,30.30,North,4,3.0,8.0,46,0.00,,,0.00,meteohub,2013-11-06 16:42:00,
2013-11-06 08:47:00,59.9,38.5,30.30,North,8,8.0,9.0,45,0.00,,,0.00,meteohub,2013-11-06 16:47:00,
2013-11-06 08:52:00,60.3,38.8,30.30,NNE,21,4.0,10.0,45,0.00,,,0.00,meteohub,2013-11-06 16:52:00,
2013-11-06 08:57:00,60.4,39.0,30.30,NNE,23,6.0,10.0,45,0.00,,,0.00,meteohub,2013-11-06 16:57:00,
2013-11-06 09:02:00,60.6,38.7,30.30,North,8,6.0,10.0,44,0.00,,,0.00,meteohub,2013-11-06 17:02:00,
2013-11-06 09:07:00,61.0,38.8,30.30,NNE,15,6.0,10.0,44,0.00,,,0.00,meteohub,2013-11-06 17:07:00,
2013-11-06 09:12:00,61.3,38.7,30.30,North,359,7.0,10.0,43,0.00,,,0.00,meteohub,2013-11-06 17:12:00,
2013-11-06 09:17:00,61.7,39.0,30.30,NNE,26,7.0,10.0,43,0.00,,,0.00,meteohub,2013-11-06 17:17:00,
2013-11-06 09:22:00,62.1,38.7,30.30,North,10,7.0,11.0,42,0.00,,,0.00,meteohub,2013-11-06 17:22:00,
2013-11-06 09:27:00,62.4,38.5,30.30,North,359,7.0,11.0,41,0.00,,,0.00,meteohub,2013-11-06 17:27:00,
2013-11-06 09:32:00,63.0,38.3,30.30,NE,45,9.0,11.0,40,0.00,,,0.00,meteohub,2013-11-06 17:32:00,
2013-11-06 09:37:00,63.1,37.8,30.30,NE,43,6.0,12.0,39,0.00,,,0.00,meteohub,2013-11-06 17:37:00,
2013-11-06 09:42:00,63.7,38.3,30.30,NNE,21,7.0,12.0,39,0.00,,,0.00,meteohub,2013-11-06 17:42:00,
2013-11-06 09:47:00,63.9,37.8,30.30,NE,49,6.0,12.0,38,0.00,,,0.00,meteohub,2013-11-06 17:47:00,
2013-11-06 09:52:00,64.0,37.2,30.30,NE,46,7.0,12.0,37,0.00,,,0.00,meteohub,2013-11-06 17:52:00,
2013-11-06 09:57:00,64.2,37.4,30.30,NE,35,5.0,13.0,37,0.00,,,0.00,meteohub,2013-11-06 17:57:00,
2013-11-06 10:02:00,64.8,37.9,30.30,NNE,31,9.0,13.0,37,0.00,,,0.00,meteohub,2013-11-06 18:02:00,
2013-11-06 10:07:00,64.9,37.4,30.30,NE,44,2.0,13.0,36,0.00,,,0.00,meteohub,2013-11-06 18:07:00,
2013-11-06 10:12:00,65.5,37.8,30.30,ENE,64,7.0,10.0,36,0.00,,,0.00,meteohub,2013-11-06 18:12:00,
2013-11-06 10:17:00,65.8,38.1,30.30,NE,42,3.0,10.0,36,0.00,,,0.00,meteohub,2013-11-06 18:17:00,
2013-11-06 10:22:00,66.2,35.4,30.30,East,81,6.0,10.0,32,0.00,,,0.00,meteohub,2013-11-06 18:22:00,
2013-11-06 10:27:00,66.4,36.3,30.29,NE,47,7.0,14.0,33,0.00,,,0.00,meteohub,2013-11-06 18:27:00,
2013-11-06 10:32:00,66.2,36.3,30.30,NE,55,5.0,14.0,33,0.00,,,0.00,meteohub,2013-11-06 18:32:00,
2013-11-06 10:37:00,66.2,36.3,30.30,ENE,62,8.0,14.0,33,0.00,,,0.00,meteohub,2013-11-06 18:37:00,
2013-11-06 10:42:00,66.4,36.3,30.29,ENE,70,5.0,13.0,33,0.00,,,0.00,meteohub,2013-11-06 18:42:00,
2013-11-06 10:47:00,66.7,34.3,30.29,ENE,71,10.0,13.0,30,0.00,,,0.00,meteohub,2013-11-06 18:47:00,
2013-11-06 10:52:00,66.9,34.5,30.28,ENE,74,12.0,15.0,30,0.00,,,0.00,meteohub,2013-11-06 18:52:00,
2013-11-06 10:58:00,66.7,35.1,30.28,ENE,70,12.0,18.0,31,0.00,,,0.00,meteohub,2013-11-06 18:58:00,
2013-11-06 11:03:00,66.9,35.2,30.28,NE,56,10.0,18.0,31,0.00,,,0.00,meteohub,2013-11-06 19:03:00,
2013-11-06 11:08:00,67.3,35.6,30.28,NE,48,7.0,15.0,31,0.00,,,0.00,meteohub,2013-11-06 19:08:00,
2013-11-06 11:13:00,67.3,34.7,30.28,ENE,70,8.0,14.0,30,0.00,,,0.00,meteohub,2013-11-06 19:13:00,
2013-11-06 11:18:00,67.5,34.9,30.27,NE,48,9.0,13.0,30,0.00,,,0.00,meteohub,2013-11-06 19:18:00,
2013-11-06 11:23:00,67.8,36.1,30.27,NE,50,8.0,14.0,31,0.00,,,0.00,meteohub,2013-11-06 19:23:00,
2013-11-06 11:28:00,68.0,35.4,30.27,ENE,65,8.0,14.0,30,0.00,,,0.00,meteohub,2013-11-06 19:28:00,
2013-11-06 11:33:00,68.2,36.3,30.27,NE,49,11.0,13.0,31,0.00,,,0.00,meteohub,2013-11-06 19:33:00,
2013-11-06 11:38:00,68.2,36.3,30.27,NE,47,10.0,13.0,31,0.00,,,0.00,meteohub,2013-11-06 19:38:00,
2013-11-06 11:43:00,68.2,36.3,30.27,NE,45,7.0,12.0,31,0.00,,,0.00,meteohub,2013-11-06 19:43:00,
2013-11-06 11:48:00,68.5,36.7,30.27,NE,45,6.0,12.0,31,0.00,,,0.00,meteohub,2013-11-06 19:48:00,
2013-11-06 11:53:00,68.7,37.6,30.27,NE,47,4.0,12.0,32,0.00,,,0.00,meteohub,2013-11-06 19:53:00,
2013-11-06 11:58:00,69.1,37.9,30.26,NNE,26,7.0,11.0,32,0.00,,,0.00,meteohub,2013-11-06 19:58:00,
2013-11-06 12:03:00,69.4,37.4,30.26,NE,39,6.0,10.0,31,0.00,,,0.00,meteohub,2013-11-06 20:03:00,
2013-11-06 12:08:00,69.6,38.5,30.26,North,10,9.0,11.0,32,0.00,,,0.00,meteohub,2013-11-06 20:08:00,
2013-11-06 12:13:00,69.3,38.1,30.26,NE,50,7.0,12.0,32,0.00,,,0.00,meteohub,2013-11-06 20:13:00,
2013-11-06 12:18:00,69.1,38.8,30.25,North,8,5.0,12.0,33,0.00,,,0.00,meteohub,2013-11-06 20:18:00,
2013-11-06 12:23:00,68.7,38.5,30.25,NE,56,10.0,14.0,33,0.00,,,0.00,meteohub,2013-11-06 20:23:00,
2013-11-06 12:28:00,69.1,39.6,30.25,NNE,32,7.0,15.0,34,0.00,,,0.00,meteohub,2013-11-06 20:28:00,
2013-11-06 12:33:00,69.3,39.7,30.25,NE,54,9.0,15.0,34,0.00,,,0.00,meteohub,2013-11-06 20:33:00,
2013-11-06 12:38:00,69.3,39.7,30.25,NE,48,10.0,14.0,34,0.00,,,0.00,meteohub,2013-11-06 20:38:00,
2013-11-06 12:43:00,68.9,40.1,30.24,ENE,73,12.0,14.0,35,0.00,,,0.00,meteohub,2013-11-06 20:43:00,
2013-11-06 12:48:00,69.1,40.3,30.24,East,81,14.0,14.0,35,0.00,,,0.00,meteohub,2013-11-06 20:48:00,
2013-11-06 12:53:00,69.1,39.6,30.24,ENE,64,11.0,15.0,34,0.00,,,0.00,meteohub,2013-11-06 20:53:00,
2013-11-06 12:58:00,68.9,40.1,30.24,NE,54,11.0,16.0,35,0.00,,,0.00,meteohub,2013-11-06 20:58:00,
2013-11-06 13:03:00,69.1,40.3,30.23,NNE,22,9.0,16.0,35,0.00,,,0.00,meteohub,2013-11-06 21:03:00,
2013-11-06 13:08:00,69.4,39.9,30.23,NE,55,9.0,16.0,34,0.00,,,0.00,meteohub,2013-11-06 21:08:00,
2013-11-06 13:13:00,69.4,39.9,30.23,NE,49,8.0,14.0,34,0.00,,,0.00,meteohub,2013-11-06 21:13:00,
2013-11-06 13:18:00,69.4,39.9,30.23,NE,37,6.0,14.0,34,0.00,,,0.00,meteohub,2013-11-06 21:18:00,
2013-11-06 13:23:00,69.6,39.2,30.23,ENE,62,5.0,13.0,33,0.00,,,0.00,meteohub,2013-11-06 21:23:00,
2013-11-06 13:28:00,70.0,37.9,30.23,ENE,73,5.0,13.0,31,0.00,,,0.00,meteohub,2013-11-06 21:28:00,
2013-11-06 13:33:00,70.0,37.9,30.23,ENE,77,11.0,11.0,31,0.00,,,0.00,meteohub,2013-11-06 21:33:00,
2013-11-06 13:38:00,70.0,37.9,30.22,East,83,14.0,14.0,31,0.00,,,0.00,meteohub,2013-11-06 21:38:00,
2013-11-06 13:43:00,69.8,37.8,30.22,ENE,76,8.0,14.0,31,0.00,,,0.00,meteohub,2013-11-06 21:43:00,
2013-11-06 13:48:00,70.0,37.9,30.22,East,86,6.0,14.0,31,0.00,,,0.00,meteohub,2013-11-06 21:48:00,
2013-11-06 13:53:00,70.3,38.3,30.22,East,90,6.0,14.0,31,0.00,,,0.00,meteohub,2013-11-06 21:53:00,
2013-11-06 13:58:00,70.5,37.6,30.22,East,87,8.0,14.0,30,0.00,,,0.00,meteohub,2013-11-06 21:58:00,
2013-11-06 14:04:00,70.3,37.4,30.23,ENE,60,5.0,13.0,30,0.00,,,0.00,meteohub,2013-11-06 22:04:00,
2013-11-06 14:09:00,70.3,37.4,30.22,East,100,5.0,15.0,30,0.00,,,0.00,meteohub,2013-11-06 22:09:00,
2013-11-06 14:14:00,70.3,37.4,30.22,East,86,8.0,15.0,30,0.00,,,0.00,meteohub,2013-11-06 22:14:00,
2013-11-06 14:19:00,70.5,36.7,30.22,ENE,71,10.0,15.0,29,0.00,,,0.00,meteohub,2013-11-06 22:19:00,
2013-11-06 14:24:00,70.3,36.5,30.22,ENE,75,5.0,14.0,29,0.00,,,0.00,meteohub,2013-11-06 22:24:00,
2013-11-06 14:29:00,70.3,37.4,30.22,NE,46,6.0,14.0,30,0.00,,,0.00,meteohub,2013-11-06 22:29:00,
2013-11-06 14:34:00,70.5,37.6,30.22,ENE,76,8.0,14.0,30,0.00,,,0.00,meteohub,2013-11-06 22:34:00,
2013-11-06 14:39:00,70.3,37.4,30.22,ENE,65,5.0,14.0,30,0.00,,,0.00,meteohub,2013-11-06 22:39:00,
2013-11-06 14:44:00,70.5,37.6,30.22,ENE,70,7.0,14.0,30,0.00,,,0.00,meteohub,2013-11-06 22:44:00,
2013-11-06 14:49:00,70.3,37.4,30.22,ENE,71,8.0,12.0,30,0.00,,,0.00,meteohub,2013-11-06 22:49:00,
2013-11-06 14:54:00,70.2,37.2,30.22,NE,43,6.0,11.0,30,0.00,,,0.00,meteohub,2013-11-06 22:54:00,
2013-11-06 14:59:00,70.3,37.4,30.22,ENE,66,7.0,11.0,30,0.00,,,0.00,meteohub,2013-11-06 22:59:00,
2013-11-06 15:04:00,70.3,37.4,30.22,ENE,66,7.0,13.0,30,0.00,,,0.00,meteohub,2013-11-06 23:04:00,
2013-11-06 15:09:00,70.3,37.4,30.22,ENE,77,7.0,13.0,30,0.00,,,0.00,meteohub,2013-11-06 23:09:00,
2013-11-06 15:14:00,70.2,36.5,30.22,East,80,5.0,11.0,29,0.00,,,0.00,meteohub,2013-11-06 23:14:00,
2013-11-06 15:19:00,70.2,37.2,30.22,ENE,75,4.0,10.0,30,0.00,,,0.00,meteohub,2013-11-06 23:19:00,
2013-11-06 15:24:00,70.0,37.0,30.22,East,80,14.0,14.0,30,0.00,,,0.00,meteohub,2013-11-06 23:24:00,
2013-11-06 15:29:00,69.6,36.9,30.22,ENE,78,11.0,11.0,30,0.00,,,0.00,meteohub,2013-11-06 23:29:00,
2013-11-06 15:34:00,69.6,36.9,30.22,ENE,76,4.0,15.0,30,0.00,,,0.00,meteohub,2013-11-06 23:34:00,
2013-11-06 15:39:00,69.4,37.4,30.22,East,91,5.0,15.0,31,0.00,,,0.00,meteohub,2013-11-06 23:39:00,
2013-11-06 15:44:00,69.4,37.4,30.21,ENE,75,9.0,15.0,31,0.00,,,0.00,meteohub,2013-11-06 23:44:00,
2013-11-06 15:49:00,69.3,37.4,30.21,East,81,9.0,13.0,31,0.00,,,0.00,meteohub,2013-11-06 23:49:00,
2013-11-06 15:54:00,69.3,38.1,30.21,ENE,77,11.0,13.0,32,0.00,,,0.00,meteohub,2013-11-06 23:54:00,
2013-11-06 15:59:00,69.1,37.2,30.21,ENE,66,7.0,13.0,31,0.00,,,0.00,meteohub,2013-11-06 23:59:00,
2013-11-06 16:04:00,68.9,37.8,30.21,NE,54,2.0,12.0,32,0.00,,,0.00,meteohub,2013-11-07 00:04:00,
2013-11-06 16:09:00,68.9,38.7,30.21,ENE,61,4.0,12.0,33,0.00,,,0.00,meteohub,2013-11-07 00:09:00,
2013-11-06 16:14:00,68.7,38.5,30.21,ENE,76,5.0,12.0,33,0.00,,,0.00,meteohub,2013-11-07 00:14:00,
2013-11-06 16:19:00,68.5,38.3,30.21,ENE,66,3.0,10.0,33,0.00,,,0.00,meteohub,2013-11-07 00:19:00,
2013-11-06 16:24:00,68.4,38.8,30.21,ENE,70,2.0,8.0,34,0.00,,,0.00,meteohub,2013-11-07 00:24:00,
2013-11-06 16:29:00,68.4,38.8,30.21,ENE,65,1.0,9.0,34,0.00,,,0.00,meteohub,2013-11-07 00:29:00,
2013-11-06 16:34:00,68.2,39.6,30.21,ENE,60,3.0,9.0,35,0.00,,,0.00,meteohub,2013-11-07 00:34:00,
2013-11-06 16:39:00,68.2,39.6,30.21,ENE,60,2.0,7.0,35,0.00,,,0.00,meteohub,2013-11-07 00:39:00,
2013-11-06 16:44:00,67.8,39.2,30.21,NNE,28,3.0,7.0,35,0.00,,,0.00,meteohub,2013-11-07 00:44:00,
2013-11-06 16:49:00,67.6,39.7,30.21,NE,51,4.0,9.0,36,0.00,,,0.00,meteohub,2013-11-07 00:49:00,
2013-11-06 16:54:00,67.5,39.6,30.20,ENE,75,4.0,9.0,36,0.00,,,0.00,meteohub,2013-11-07 00:54:00,
2013-11-06 16:59:00,67.5,39.6,30.21,ENE,74,2.0,9.0,36,0.00,,,0.00,meteohub,2013-11-07 00:59:00,
2013-11-06 17:04:00,67.3,39.4,30.21,ENE,73,0.0,9.0,36,0.00,,,0.00,meteohub,2013-11-07 01:04:00,
2013-11-06 17:09:00,66.9,39.0,30.21,ENE,70,0.0,9.0,36,0.00,,,0.00,meteohub,2013-11-07 01:09:00,
2013-11-06 17:15:00,66.7,39.6,30.21,ENE,69,1.0,5.0,37,0.00,,,0.00,meteohub,2013-11-07 01:15:00,
2013-11-06 17:20:00,66.7,39.6,30.21,ENE,61,0.0,4.0,37,0.00,,,0.00,meteohub,2013-11-07 01:20:00,
2013-11-06 17:25:00,66.6,39.6,30.21,ENE,61,3.0,5.0,37,0.00,,,0.00,meteohub,2013-11-07 01:25:00,
2013-11-06 17:30:00,66.6,39.6,30.21,ENE,62,0.0,5.0,37,0.00,,,0.00,meteohub,2013-11-07 01:30:00,
2013-11-06 17:35:00,66.2,39.2,30.21,NE,35,4.0,5.0,37,0.00,,,0.00,meteohub,2013-11-07 01:35:00,
2013-11-06 17:40:00,66.0,39.0,30.21,NE,53,5.0,5.0,37,0.00,,,0.00,meteohub,2013-11-07 01:40:00,
2013-11-06 17:45:00,66.2,39.2,30.21,NE,55,0.0,9.0,37,0.00,,,0.00,meteohub,2013-11-07 01:45:00,
2013-11-06 17:50:00,66.4,39.4,30.21,ENE,66,4.0,9.0,37,0.00,,,0.00,meteohub,2013-11-07 01:50:00,
2013-11-06 17:55:00,66.4,38.7,30.21,East,93,3.0,9.0,36,0.00,,,0.00,meteohub,2013-11-07 01:55:00,
2013-11-06 18:00:00,66.6,39.6,30.21,ENE,71,7.0,14.0,37,0.00,,,0.00,meteohub,2013-11-07 02:00:00,
2013-11-06 18:05:00,66.4,38.7,30.21,East,97,5.0,14.0,36,0.00,,,0.00,meteohub,2013-11-07 02:05:00,
2013-11-06 18:10:00,66.6,38.8,30.21,East,84,6.0,14.0,36,0.00,,,0.00,meteohub,2013-11-07 02:10:00,
2013-11-06 18:15:00,66.4,39.4,30.21,East,79,6.0,11.0,37,0.00,,,0.00,meteohub,2013-11-07 02:15:00,
2013-11-06 18:20:00,66.0,39.0,30.21,ENE,77,3.0,11.0,37,0.00,,,0.00,meteohub,2013-11-07 02:20:00,
2013-11-06 18:25:00,65.8,38.8,30.21,ENE,71,3.0,8.0,37,0.00,,,0.00,meteohub,2013-11-07 02:25:00,
2013-11-06 18:30:00,66.0,39.0,30.21,ENE,76,5.0,10.0,37,0.00,,,0.00,meteohub,2013-11-07 02:30:00,
2013-11-06 18:35:00,66.2,38.5,30.21,East,92,3.0,10.0,36,0.00,,,0.00,meteohub,2013-11-07 02:35:00,
2013-11-06 18:40:00,66.2,38.5,30.21,East,92,2.0,10.0,36,0.00,,,0.00,meteohub,2013-11-07 02:40:00,
2013-11-06 18:45:00,66.4,38.7,30.20,ENE,68,8.0,8.0,36,0.00,,,0.00,meteohub,2013-11-07 02:45:00,
2013-11-06 18:50:00,66.7,38.3,30.21,East,100,0.0,12.0,35,0.00,,,0.00,meteohub,2013-11-07 02:50:00,
2013-11-06 18:55:00,66.6,38.8,30.21,ENE,76,4.0,12.0,36,0.00,,,0.00,meteohub,2013-11-07 02:55:00,
2013-11-06 19:00:00,66.4,38.7,30.21,East,82,5.0,12.0,36,0.00,,,0.00,meteohub,2013-11-07 03:00:00,
2013-11-06 19:05:00,66.4,38.7,30.21,East,82,0.0,8.0,36,0.00,,,0.00,meteohub,2013-11-07 03:05:00,
2013-11-06 19:10:00,66.2,38.5,30.21,East,82,0.0,8.0,36,0.00,,,0.00,meteohub,2013-11-07 03:10:00,
2013-11-06 19:15:00,66.0,38.3,30.21,East,82,0.0,5.0,36,0.00,,,0.00,meteohub,2013-11-07 03:15:00,
2013-11-06 19:20:00,65.8,38.1,30.21,East,82,0.0,5.0,36,0.00,,,0.00,meteohub,2013-11-07 03:20:00,
2013-11-06 19:25:00,65.8,38.1,30.21,East,92,0.0,6.0,36,0.00,,,0.00,meteohub,2013-11-07 03:25:00,
2013-11-06 19:30:00,65.7,38.7,30.21,East,91,1.0,6.0,37,0.00,,,0.00,meteohub,2013-11-07 03:30:00,
2013-11-06 19:35:00,65.7,37.9,30.21,East,96,1.0,6.0,36,0.00,,,0.00,meteohub,2013-11-07 03:35:00,
2013-11-06 19:40:00,65.8,38.1,30.21,ESE,111,3.0,5.0,36,0.00,,,0.00,meteohub,2013-11-07 03:40:00,
2013-11-06 19:45:00,66.0,38.3,30.21,ESE,112,3.0,7.0,36,0.00,,,0.00,meteohub,2013-11-07 03:45:00,
2013-11-06 19:50:00,66.0,38.3,30.21,ESE,121,4.0,7.0,36,0.00,,,0.00,meteohub,2013-11-07 03:50:00,
2013-11-06 19:55:00,66.0,38.3,30.21,East,97,3.0,8.0,36,0.00,,,0.00,meteohub,2013-11-07 03:55:00,
2013-11-06 20:00:00,66.2,37.8,30.21,East,97,5.0,8.0,35,0.00,,,0.00,meteohub,2013-11-07 04:00:00,
2013-11-06 20:05:00,66.4,37.9,30.21,East,95,3.0,9.0,35,0.00,,,0.00,meteohub,2013-11-07 04:05:00,
2013-11-06 20:10:00,66.4,37.9,30.21,East,94,0.0,9.0,35,0.00,,,0.00,meteohub,2013-11-07 04:10:00,
2013-11-06 20:15:00,66.2,37.8,30.21,East,93,0.0,9.0,35,0.00,,,0.00,meteohub,2013-11-07 04:15:00,
2013-11-06 20:20:00,65.8,38.1,30.22,East,94,2.0,6.0,36,0.00,,,0.00,meteohub,2013-11-07 04:20:00,
2013-11-06 20:26:00,65.7,37.9,30.21,East,93,0.0,5.0,36,0.00,,,0.00,meteohub,2013-11-07 04:26:00,
2013-11-06 20:31:00,65.5,38.5,30.22,East,95,0.0,5.0,37,0.00,,,0.00,meteohub,2013-11-07 04:31:00,
2013-11-06 20:36:00,65.1,38.8,30.21,East,94,0.0,5.0,38,0.00,,,0.00,meteohub,2013-11-07 04:36:00,
2013-11-06 20:41:00,64.9,40.1,30.21,East,94,0.0,1.0,40,0.00,,,0.00,meteohub,2013-11-07 04:41:00,
2013-11-06 20:46:00,64.8,39.9,30.21,East,94,0.0,1.0,40,0.00,,,0.00,meteohub,2013-11-07 04:46:00,
2013-11-06 20:51:00,64.4,39.6,30.21,East,94,0.0,1.0,40,0.00,,,0.00,meteohub,2013-11-07 04:51:00,
2013-11-06 20:56:00,64.2,40.1,30.21,East,94,0.0,0.0,41,0.00,,,0.00,meteohub,2013-11-07 04:56:00,
2013-11-06 21:01:00,63.9,39.7,30.22,East,94,0.0,0.0,41,0.00,,,0.00,meteohub,2013-11-07 05:01:00,
2013-11-06 21:02:00,63.9,39.7,30.22,East,93,1.0,0.0,41,0.00,,,0.00,meteohub,2013-11-07 05:02:00,
2013-11-06 21:03:00,63.7,40.1,30.21,East,93,1.0,0.0,42,0.00,,,0.00,meteohub,2013-11-07 05:03:00,
2013-11-06 21:05:00,63.3,39.9,30.21,East,93,1.0,2.0,42,0.00,,,0.00,meteohub,2013-11-07 05:05:00,
2013-11-06 21:06:00,63.3,40.5,30.22,East,93,2.0,2.0,43,0.00,,,0.00,meteohub,2013-11-07 05:06:00,
2013-11-06 21:08:00,63.1,40.3,30.22,East,93,3.0,3.0,43,0.00,,,0.00,meteohub,2013-11-07 05:08:00,
2013-11-06 21:13:00,62.6,39.7,30.22,NE,49,4.0,4.0,43,0.00,,,0.00,meteohub,2013-11-07 05:13:00,
2013-11-06 21:18:00,62.8,39.9,30.22,NE,35,6.0,6.0,43,0.00,,,0.00,meteohub,2013-11-07 05:18:00,
2013-11-06 21:23:00,63.3,38.7,30.22,NE,35,3.0,6.0,40,0.00,,,0.00,meteohub,2013-11-07 05:23:00,
2013-11-06 21:28:00,63.9,39.0,30.22,NNE,25,3.0,6.0,40,0.00,,,0.00,meteohub,2013-11-07 05:28:00,
2013-11-06 21:33:00,63.7,38.8,30.22,NNE,24,4.0,6.0,40,0.00,,,0.00,meteohub,2013-11-07 05:33:00,
2013-11-06 21:38:00,63.3,38.7,30.22,NNE,24,3.0,6.0,40,0.00,,,0.00,meteohub,2013-11-07 05:38:00,
2013-11-06 21:43:00,63.1,39.0,30.22,NNE,25,1.0,6.0,41,0.00,,,0.00,meteohub,2013-11-07 05:43:00,
2013-11-06 21:48:00,62.8,39.4,30.22,NNE,25,3.0,6.0,42,0.00,,,0.00,meteohub,2013-11-07 05:48:00,
2013-11-06 21:53:00,62.2,39.4,30.22,NNE,21,4.0,5.0,43,0.00,,,0.00,meteohub,2013-11-07 05:53:00,
2013-11-06 21:59:00,61.7,40.1,30.22,NNE,20,2.0,4.0,45,0.00,,,0.00,meteohub,2013-11-07 05:59:00,
2013-11-06 22:04:00,61.3,39.7,30.22,NNE,21,0.0,4.0,45,0.00,,,0.00,meteohub,2013-11-07 06:04:00,
2013-11-06 22:09:00,61.2,39.7,30.22,NNE,21,0.0,4.0,45,0.00,,,0.00,meteohub,2013-11-07 06:09:00,
2013-11-06 22:14:00,61.0,40.1,30.22,NNE,21,0.0,4.0,46,0.00,,,0.00,meteohub,2013-11-07 06:14:00,
2013-11-06 22:19:00,60.8,39.9,30.22,NNE,21,1.0,3.0,46,0.00,,,0.00,meteohub,2013-11-07 06:19:00,
2013-11-06 22:24:00,60.4,40.1,30.22,NNE,20,1.0,2.0,47,0.00,,,0.00,meteohub,2013-11-07 06:24:00,
2013-11-06 22:29:00,60.3,40.5,30.22,NNE,20,0.0,2.0,48,0.00,,,0.00,meteohub,2013-11-07 06:29:00,
2013-11-06 22:34:00,59.9,40.6,30.22,NNE,20,0.0,3.0,49,0.00,,,0.00,meteohub,2013-11-07 06:34:00,
2013-11-06 22:39:00,59.7,41.0,30.22,NNE,21,0.0,3.0,50,0.00,,,0.00,meteohub,2013-11-07 06:39:00,
2013-11-06 22:44:00,59.5,40.8,30.22,NNE,21,0.0,3.0,50,0.00,,,0.00,meteohub,2013-11-07 06:44:00,
2013-11-06 22:49:00,59.4,40.6,30.22,NNE,21,0.0,3.0,50,0.00,,,0.00,meteohub,2013-11-07 06:49:00,
2013-11-06 22:54:00,59.2,41.0,30.22,NNE,21,0.0,3.0,51,0.00,,,0.00,meteohub,2013-11-07 06:54:00,
2013-11-06 22:59:00,59.0,40.8,30.22,NNE,21,0.0,3.0,51,0.00,,,0.00,meteohub,2013-11-07 06:59:00,
2013-11-06 23:04:00,58.8,41.2,30.22,NNE,20,0.0,0.0,52,0.00,,,0.00,meteohub,2013-11-07 07:04:00,
2013-11-06 23:09:00,58.6,41.0,30.22,NNE,20,0.0,0.0,52,0.00,,,0.00,meteohub,2013-11-07 07:09:00,
2013-11-06 23:14:00,58.5,40.8,30.21,NNE,21,0.0,0.0,52,0.00,,,0.00,meteohub,2013-11-07 07:14:00,
2013-11-06 23:19:00,58.5,41.4,30.21,NNE,21,0.0,1.0,53,0.00,,,0.00,meteohub,2013-11-07 07:19:00,
2013-11-06 23:24:00,58.3,41.2,30.21,NNE,20,0.0,1.0,53,0.00,,,0.00,meteohub,2013-11-07 07:24:00,
2013-11-06 23:29:00,58.3,41.2,30.21,NNE,21,0.0,0.0,53,0.00,,,0.00,meteohub,2013-11-07 07:29:00,
2013-11-06 23:34:00,57.9,41.4,30.21,NNE,20,0.0,0.0,54,0.00,,,0.00,meteohub,2013-11-07 07:34:00,
2013-11-06 23:39:00,57.7,41.2,30.21,NNE,20,0.0,1.0,54,0.00,,,0.00,meteohub,2013-11-07 07:39:00,
2013-11-06 23:44:00,57.7,41.7,30.21,NNE,21,0.0,1.0,55,0.00,,,0.00,meteohub,2013-11-07 07:44:00,
2013-11-06 23:49:00,57.7,41.2,30.21,NNE,21,0.0,1.0,54,0.00,,,0.00,meteohub,2013-11-07 07:49:00,
2013-11-06 23:54:00,57.7,41.2,30.20,NNE,20,0.0,1.0,54,0.00,,,0.00,meteohub,2013-11-07 07:54:00,
2013-11-06 23:59:00,57.6,41.5,30.20,NNE,20,0.0,0.0,55,0.00,,,0.00,meteohub,2013-11-07 07:59:00,